Time;durP1;ratioP1;P1;durP2;ratioP2;P2;SDS_P1;SDS_P2;PMS_P1;PMS_P2;Temp;Humidity;BMP_temperature;BMP_pressure;BME280_temperature;BME280_humidity;BME280_pressure;Samples;Min_cycle;Max_cycle;Signal;HPM_P1;HPM_P2
2021/10/22 00:01:08;;;;;;;2.40;1.60;;;;;;;8.18;100.00;153461.06;4971122;28;20576;-73
2021/10/22 00:03:44;;;;;;;1.60;1.27;;;;;;;8.14;100.00;153450.75;4969797;28;20453;-73
2021/10/22 00:06:20;;;;;;;2.03;1.73;;;;;;;8.14;100.00;153450.75;4971164;28;20942;-73
2021/10/22 00:08:55;;;;;;;2.80;1.63;;;;;;;8.16;100.00;153455.91;4969926;28;20544;-73
2021/10/22 00:11:37;;;;;;;2.80;1.30;;;;;;;8.10;100.00;153439.13;4955538;28;20523;-73
2021/10/22 00:14:13;;;;;;;2.53;1.60;;;;;;;8.05;100.00;153426.22;4968370;28;20800;-73
2021/10/22 00:16:49;;;;;;;2.10;1.57;;;;;;;8.03;100.00;153422.31;4968133;28;20888;-73
2021/10/22 00:19:24;;;;;;;1.20;1.10;;;;;;;7.99;100.00;153413.25;4970877;28;20453;-73
2021/10/22 00:22:00;;;;;;;2.03;1.33;;;;;;;7.92;100.00;153395.19;4971450;28;20468;-73
2021/10/22 00:24:35;;;;;;;1.93;1.40;;;;;;;7.95;100.00;153401.63;4954848;29;20497;-73
2021/10/22 00:27:12;;;;;;;2.33;1.33;;;;;;;7.88;100.00;153384.88;4963786;28;20454;-73
2021/10/22 00:29:48;;;;;;;1.80;1.43;;;;;;;7.86;100.00;153378.41;4977616;28;20445;-73
2021/10/22 00:32:23;;;;;;;5.07;2.07;;;;;;;7.83;100.00;153371.94;4976870;28;20468;-73
2021/10/22 00:34:59;;;;;;;1.97;1.40;;;;;;;7.81;100.00;153365.50;4973023;28;20462;-73
2021/10/22 00:37:34;;;;;;;3.50;1.40;;;;;;;7.74;100.00;153348.69;4972218;28;20486;-73
2021/10/22 00:40:11;;;;;;;6.00;2.23;;;;;;;7.71;100.00;153339.63;4957685;28;20457;-73
2021/10/22 00:42:48;;;;;;;3.63;1.43;;;;;;;7.69;100.00;153335.75;4968240;28;20850;-72
2021/10/22 00:45:24;;;;;;;2.10;1.10;;;;;;;7.68;100.00;153333.16;4972309;28;20837;-73
2021/10/22 00:47:59;;;;;;;1.50;1.00;;;;;;;7.67;100.00;153329.31;4970874;28;20478;-73
2021/10/22 00:50:38;;;;;;;3.10;1.73;;;;;;;7.64;100.00;153322.84;4989263;28;20453;-72
2021/10/22 00:53:13;;;;;;;1.83;1.47;;;;;;;7.70;100.00;153337.06;4977998;28;20957;-73
2021/10/22 00:55:50;;;;;;;2.70;1.30;;;;;;;7.68;100.00;153333.16;4959965;28;20426;-73
2021/10/22 00:58:29;;;;;;;3.27;1.37;;;;;;;7.64;100.00;153322.84;4973516;28;20450;-73
2021/10/22 01:01:05;;;;;;;1.40;1.00;;;;;;;7.66;100.00;153326.72;4977857;28;20421;-73
2021/10/22 01:03:41;;;;;;;4.50;1.30;;;;;;;7.66;100.00;153328.00;4971355;28;20471;-73
2021/10/22 01:06:16;;;;;;;3.00;1.53;;;;;;;7.62;100.00;153316.41;4975518;28;20478;-73
2021/10/22 01:08:52;;;;;;;5.43;1.40;;;;;;;7.60;100.00;153311.25;4989705;28;20449;-73
2021/10/22 01:11:28;;;;;;;2.40;1.37;;;;;;;7.59;100.00;153309.94;4968686;28;20986;-73
2021/10/22 01:14:06;;;;;;;2.53;1.97;;;;;;;7.59;100.00;153308.63;4973867;28;20442;-73
2021/10/22 01:16:42;;;;;;;1.60;1.07;;;;;;;7.61;100.00;153313.78;4973576;28;20455;-73
2021/10/22 01:19:18;;;;;;;2.17;1.63;;;;;;;7.58;100.00;153306.03;4956842;29;20455;-72
2021/10/22 01:21:55;;;;;;;3.97;2.00;;;;;;;7.63;100.00;153318.94;4961957;28;20438;-73
2021/10/22 01:24:31;;;;;;;3.23;1.60;;;;;;;7.62;100.00;153317.69;4975215;28;20469;-73
2021/10/22 01:27:06;;;;;;;1.80;1.53;;;;;;;7.62;100.00;153317.69;4970618;28;20884;-73
2021/10/22 01:29:42;;;;;;;4.60;1.80;;;;;;;7.68;100.00;153331.84;4991092;28;20446;-73
2021/10/22 01:32:18;;;;;;;2.97;1.67;;;;;;;7.66;100.00;153326.72;4970260;28;21024;-73
2021/10/22 01:34:54;;;;;;;8.03;1.47;;;;;;;7.61;100.00;153313.78;4973449;28;20450;-73
2021/10/22 01:37:30;;;;;;;3.73;1.37;;;;;;;7.63;100.00;153320.25;4974989;28;20458;-73
2021/10/22 01:40:08;;;;;;;3.90;1.83;;;;;;;7.62;100.00;153317.69;4978709;28;20544;-72
2021/10/22 01:42:43;;;;;;;5.27;1.60;;;;;;;7.64;100.00;153321.56;4991844;28;20453;-73
2021/10/22 01:45:19;;;;;;;4.43;1.70;;;;;;;7.61;100.00;153315.09;4977292;28;20893;-72
2021/10/22 01:47:54;;;;;;;7.50;2.10;;;;;;;7.60;100.00;153312.50;4975398;28;20457;-72
2021/10/22 01:50:31;;;;;;;3.53;1.23;;;;;;;7.62;100.00;153317.69;4977268;28;20421;-73
2021/10/22 01:53:08;;;;;;;4.93;1.70;;;;;;;7.61;100.00;153315.09;4974328;28;20454;-73
2021/10/22 01:55:44;;;;;;;2.93;1.63;;;;;;;7.62;100.00;153316.41;4977074;28;20433;-73
2021/10/22 01:58:19;;;;;;;2.40;1.83;;;;;;;7.58;100.00;153306.03;4974600;28;20477;-73
2021/10/22 02:00:55;;;;;;;4.17;1.90;;;;;;;7.62;100.00;153316.41;4975983;28;20868;-73
2021/10/22 02:03:30;;;;;;;8.77;1.93;;;;;;;7.63;100.00;153318.94;4975278;28;20546;-73
2021/10/22 02:06:08;;;;;;;2.80;1.40;;;;;;;7.64;100.00;153322.84;4976693;28;20460;-73
2021/10/22 02:08:45;;;;;;;3.50;1.30;;;;;;;7.63;100.00;153320.25;4973864;28;20450;-72
2021/10/22 02:11:21;;;;;;;4.87;1.50;;;;;;;7.58;100.00;153306.03;4958979;28;20489;-73
2021/10/22 02:13:57;;;;;;;4.03;1.50;;;;;;;7.53;100.00;153294.44;4957561;28;20479;-72
2021/10/22 02:16:33;;;;;;;3.70;1.40;;;;;;;7.55;100.00;153298.28;4974518;28;20778;-73
2021/10/22 02:19:09;;;;;;;4.43;1.70;;;;;;;7.58;100.00;153307.34;4976888;28;20470;-73
2021/10/22 02:21:44;;;;;;;6.53;1.50;;;;;;;7.55;100.00;153298.28;4975754;28;21042;-73
2021/10/22 02:24:21;;;;;;;2.00;1.10;;;;;;;7.55;100.00;153299.59;4973862;28;20869;-72
2021/10/22 02:26:57;;;;;;;2.73;1.37;;;;;;;7.51;100.00;153287.97;4970489;28;20455;-73
2021/10/22 02:29:34;;;;;;;2.97;1.33;;;;;;;7.48;100.00;153281.50;4966838;28;20446;-73
2021/10/22 02:32:09;;;;;;;2.13;1.13;;;;;;;7.43;100.00;153267.31;4975992;28;20442;-73
2021/10/22 02:34:45;;;;;;;4.30;1.70;;;;;;;7.43;100.00;153267.31;4974469;28;20454;-73
2021/10/22 02:37:21;;;;;;;3.87;1.50;;;;;;;7.34;100.00;153246.63;4974233;28;20485;-72
2021/10/22 02:39:58;;;;;;;2.70;1.40;;;;;;;7.31;100.00;153238.88;4976744;28;20414;-72
2021/10/22 02:42:35;;;;;;;3.90;1.30;;;;;;;7.25;100.00;153223.38;4972560;28;20450;-72
2021/10/22 02:45:10;;;;;;;3.20;1.40;;;;;;;7.21;100.00;153213.06;4990347;28;20479;-72
2021/10/22 02:47:46;;;;;;;4.00;1.40;;;;;;;7.17;100.00;153201.47;4976314;28;20442;-72
2021/10/22 02:50:21;;;;;;;4.47;1.40;;;;;;;7.10;100.00;153183.34;4974835;28;20536;-73
2021/10/22 02:53:00;;;;;;;3.80;1.70;;;;;;;7.07;100.00;153175.66;4974259;28;20482;-73
2021/10/22 02:55:37;;;;;;;3.47;1.30;;;;;;;6.99;100.00;153156.25;4974940;28;20449;-73
2021/10/22 02:58:13;;;;;;;12.33;3.20;;;;;;;6.95;100.00;153145.94;4975087;28;20963;-73
2021/10/22 03:00:48;;;;;;;5.23;1.40;;;;;;;6.92;100.00;153136.88;4958948;28;20508;-73
2021/10/22 03:03:24;;;;;;;3.10;1.27;;;;;;;6.90;100.00;153133.03;4973919;28;20541;-73
2021/10/22 03:06:00;;;;;;;3.00;1.30;;;;;;;6.87;100.00;153125.28;4975893;28;20552;-72
2021/10/22 03:08:35;;;;;;;3.47;1.30;;;;;;;6.79;100.00;153104.63;4974466;28;20428;-72
2021/10/22 03:11:12;;;;;;;1.50;1.33;;;;;;;6.79;100.00;153104.63;4965136;28;20470;-72
2021/10/22 03:13:48;;;;;;;2.20;1.23;;;;;;;6.75;100.00;153094.31;4973120;28;20462;-73
2021/10/22 03:16:24;;;;;;;5.00;1.63;;;;;;;6.68;100.00;153076.22;4975570;28;20446;-72
2021/10/22 03:18:59;;;;;;;4.97;2.13;;;;;;;6.65;100.00;153068.47;4975885;28;20454;-73
2021/10/22 03:21:34;;;;;;;2.97;1.73;;;;;;;6.62;100.00;153060.72;4975358;28;21024;-73
2021/10/22 03:24:10;;;;;;;3.00;1.93;;;;;;;6.59;100.00;153053.00;4958327;28;20443;-73
2021/10/22 03:26:47;;;;;;;6.23;1.63;;;;;;;6.58;100.00;153050.41;4959411;28;20993;-72
2021/10/22 03:29:22;;;;;;;6.77;1.67;;;;;;;6.54;100.00;153040.13;4969678;28;20849;-72
2021/10/22 03:32:00;;;;;;;2.67;1.20;;;;;;;6.53;100.00;153037.50;4968500;28;20453;-73
2021/10/22 03:34:36;;;;;;;6.53;2.17;;;;;;;6.49;100.00;153027.16;4973838;28;20447;-73
2021/10/22 03:37:12;;;;;;;6.37;1.90;;;;;;;6.46;100.00;153019.47;4990535;28;20809;-72
2021/10/22 03:39:48;;;;;;;3.97;1.73;;;;;;;6.43;100.00;153011.72;4974345;28;20774;-72
2021/10/22 03:42:25;;;;;;;3.53;1.53;;;;;;;6.38;100.00;153000.06;4974433;28;20456;-72
2021/10/22 03:45:03;;;;;;;3.83;1.90;;;;;;;6.39;100.00;153002.66;4958797;28;20450;-73
2021/10/22 03:47:39;;;;;;;6.03;2.10;;;;;;;6.35;100.00;152992.38;4975229;28;20443;-72
2021/10/22 03:50:17;;;;;;;6.63;2.37;;;;;;;6.30;100.00;152979.41;4969700;28;20458;-72
2021/10/22 03:52:53;;;;;;;3.93;1.83;;;;;;;6.26;100.00;152969.13;4973413;28;20454;-73
2021/10/22 03:55:28;;;;;;;3.57;1.73;;;;;;;6.23;100.00;152960.06;4973714;28;20894;-73
2021/10/22 03:58:05;;;;;;;4.30;2.27;;;;;;;6.19;100.00;152949.78;4973680;28;20442;-72
2021/10/22 04:00:41;;;;;;;3.67;1.40;;;;;;;6.13;100.00;152936.88;4957316;28;20564;-72
2021/10/22 04:03:16;;;;;;;6.87;2.27;;;;;;;6.12;100.00;152934.28;4958731;28;20478;-72
2021/10/22 04:05:52;;;;;;;3.63;1.63;;;;;;;6.10;100.00;152929.13;4973309;28;20473;-72
2021/10/22 04:08:28;;;;;;;4.13;1.73;;;;;;;6.04;100.00;152913.63;4972701;28;20450;-73
2021/10/22 04:11:03;;;;;;;3.33;1.60;;;;;;;6.02;100.00;152908.50;4970853;28;20498;-72
2021/10/22 04:13:42;;;;;;;3.73;1.40;;;;;;;5.93;100.00;152885.25;4973601;28;20434;-72
2021/10/22 04:16:17;;;;;;;4.30;1.67;;;;;;;5.88;100.00;152872.34;4989772;28;20450;-73
2021/10/22 04:18:53;;;;;;;5.60;1.63;;;;;;;5.87;100.00;152868.50;4972907;28;20792;-73
2021/10/22 04:21:28;;;;;;;4.50;1.50;;;;;;;5.87;100.00;152868.50;4971881;28;20937;-72
2021/10/22 04:24:05;;;;;;;4.93;1.80;;;;;;;5.80;100.00;152851.66;4974391;28;20422;-72
2021/10/22 04:26:40;;;;;;;3.60;2.33;;;;;;;5.82;100.00;152856.88;4973109;28;20477;-73
2021/10/22 04:29:17;;;;;;;3.43;1.97;;;;;;;5.81;100.00;152854.28;4986017;28;20478;-72
2021/10/22 04:31:53;;;;;;;3.97;1.60;;;;;;;5.79;100.00;152847.81;4971457;28;20462;-73
2021/10/22 04:34:28;;;;;;;3.40;1.83;;;;;;;5.74;100.00;152834.94;4973882;28;20442;-72
2021/10/22 04:37:22;;;;;;;4.23;1.87;;;;;;;5.68;100.00;152819.44;4974661;28;20438;-72
2021/10/22 04:42:51;;;;;;;2.40;1.60;;;;;;;5.62;100.00;152805.25;4972314;28;20473;-72
2021/10/22 04:45:29;;;;;;;3.07;1.57;;;;;;;5.58;100.00;152793.66;4974023;28;20427;-72
2021/10/22 04:48:05;;;;;;;4.83;1.90;;;;;;;5.56;100.00;152789.75;4972913;28;20852;-72
2021/10/22 04:50:44;;;;;;;4.60;2.13;;;;;;;5.53;100.00;152782.06;4971167;28;20450;-72
2021/10/22 04:53:22;;;;;;;2.73;1.87;;;;;;;5.52;100.00;152779.47;4971843;28;20430;-73
2021/10/22 04:55:58;;;;;;;5.50;1.50;;;;;;;5.49;100.00;152771.72;4969978;28;20450;-73
2021/10/22 04:58:33;;;;;;;4.60;1.60;;;;;;;5.50;100.00;152774.31;4971284;28;21004;-72
2021/10/22 05:01:25;;;;;;;3.97;1.70;;;;;;;5.49;100.00;152771.72;4972596;28;20461;-72
2021/10/22 05:04:01;;;;;;;4.50;2.20;;;;;;;5.46;100.00;152764.00;4953854;29;20420;-73
2021/10/22 05:06:36;;;;;;;4.97;1.50;;;;;;;5.47;100.00;152766.59;4969018;28;20584;-73
2021/10/22 05:09:12;;;;;;;5.47;1.60;;;;;;;5.46;100.00;152765.28;4954163;28;20453;-73
2021/10/22 05:11:47;;;;;;;4.47;1.90;;;;;;;5.47;100.00;152766.59;4938387;28;20478;-73
2021/10/22 05:14:23;;;;;;;7.03;2.23;;;;;;;5.44;100.00;152758.84;4968601;28;20454;-73
2021/10/22 05:17:00;;;;;;;5.20;1.60;;;;;;;5.47;100.00;152766.59;4972757;28;20486;-73
2021/10/22 05:19:35;;;;;;;3.80;1.77;;;;;;;5.46;100.00;152764.00;4973580;28;20438;-73
2021/10/22 05:22:11;;;;;;;3.40;1.90;;;;;;;5.48;100.00;152770.44;4973222;28;20458;-73
2021/10/22 05:24:46;;;;;;;4.60;1.77;;;;;;;5.50;100.00;152774.31;4952910;28;20467;-73
2021/10/22 05:27:22;;;;;;;5.37;1.80;;;;;;;5.48;100.00;152770.44;4965999;28;20471;-73
2021/10/22 05:29:57;;;;;;;3.50;1.60;;;;;;;5.49;100.00;152773.03;4970782;28;20525;-73
2021/10/22 05:32:34;;;;;;;5.30;1.90;;;;;;;5.50;100.00;152774.31;4973513;28;20548;-73
2021/10/22 05:35:10;;;;;;;2.90;1.80;;;;;;;5.47;100.00;152766.59;4963479;28;20934;-73
2021/10/22 05:37:46;;;;;;;6.10;2.33;;;;;;;5.43;100.00;152757.53;4965717;28;20454;-73
2021/10/22 05:40:21;;;;;;;6.33;1.70;;;;;;;5.40;100.00;152748.56;4972292;28;20460;-73
2021/10/22 05:42:57;;;;;;;2.80;1.70;;;;;;;5.37;100.00;152742.09;4970883;28;20445;-73
2021/10/22 05:45:33;;;;;;;5.60;1.90;;;;;;;5.37;100.00;152742.09;4976367;28;20432;-73
2021/10/22 05:48:09;;;;;;;4.83;1.90;;;;;;;5.40;100.00;152748.56;4973791;28;20956;-73
2021/10/22 05:50:45;;;;;;;3.83;1.80;;;;;;;5.39;100.00;152747.25;4966635;28;20442;-73
2021/10/22 05:53:21;;;;;;;7.90;1.80;;;;;;;5.37;100.00;152740.81;4974675;28;20446;-73
2021/10/22 05:55:56;;;;;;;4.10;2.20;;;;;;;5.35;100.00;152735.63;4975263;28;20548;-73
2021/10/22 05:58:32;;;;;;;4.47;2.47;;;;;;;5.36;100.00;152738.22;4975681;28;20446;-73
2021/10/22 06:01:08;;;;;;;6.37;2.23;;;;;;;5.34;100.00;152734.38;4952329;28;20469;-73
2021/10/22 06:03:45;;;;;;;9.27;1.90;;;;;;;5.32;100.00;152727.91;4965981;28;20453;-73
2021/10/22 06:06:20;;;;;;;4.43;1.70;;;;;;;5.29;100.00;152721.47;4969471;28;20509;-73
2021/10/22 06:08:57;;;;;;;8.77;2.80;;;;;;;5.27;100.00;152715.03;4974533;28;20418;-73
2021/10/22 06:11:33;;;;;;;7.07;1.90;;;;;;;5.23;100.00;152704.69;4972921;28;20481;-73
2021/10/22 06:14:08;;;;;;;6.87;2.00;;;;;;;5.25;100.00;152709.84;4974786;28;20449;-73
2021/10/22 06:16:44;;;;;;;3.93;2.20;;;;;;;5.21;100.00;152699.56;4974883;28;20461;-73
2021/10/22 06:19:25;;;;;;;2.83;2.00;;;;;;;5.23;100.00;152704.69;4966622;28;20446;-73
2021/10/22 06:22:34;;;;;;;9.60;2.23;;;;;;;5.27;100.00;152716.28;4958220;28;20446;-73
2021/10/22 06:25:10;;;;;;;5.57;2.50;;;;;;;5.36;100.00;152738.22;4987012;28;20455;-73
2021/10/22 06:27:45;;;;;;;6.27;3.20;;;;;;;5.43;100.00;152757.53;4975786;28;20572;-73
2021/10/22 06:30:20;;;;;;;7.67;3.67;;;;;;;5.55;100.00;152787.22;4974255;28;20489;-73
2021/10/22 06:32:56;;;;;;;14.47;4.63;;;;;;;5.62;100.00;152805.25;4975100;28;20457;-73
2021/10/22 06:35:33;;;;;;;16.30;4.00;;;;;;;5.78;100.00;152846.53;4974367;28;20462;-73
2021/10/22 06:38:08;;;;;;;20.20;5.00;;;;;;;5.96;100.00;152893.00;4974131;28;20446;-73
2021/10/22 06:40:44;;;;;;;8.90;3.70;;;;;;;6.07;100.00;152920.09;4980131;28;20460;-73
2021/10/22 06:43:20;;;;;;;12.50;4.67;;;;;;;6.25;100.00;152965.28;4976496;28;20490;-73
2021/10/22 06:45:55;;;;;;;4.67;3.43;;;;;;;6.37;100.00;152996.22;4954024;28;20443;-73
2021/10/22 06:48:31;;;;;;;5.87;3.07;;;;;;;6.54;100.00;153040.13;4964822;28;20937;-73
2021/10/22 06:51:09;;;;;;;3.60;3.20;;;;;;;6.70;100.00;153081.38;4990520;28;20465;-73
2021/10/22 06:53:45;;;;;;;7.20;3.77;;;;;;;6.87;100.00;153125.28;4972377;28;20466;-73
2021/10/22 06:56:21;;;;;;;5.00;3.00;;;;;;;7.03;100.00;153166.59;4972452;28;20517;-73
2021/10/22 06:58:56;;;;;;;6.73;3.20;;;;;;;7.25;99.81;153222.13;4975999;28;20532;-73
2021/10/22 07:01:32;;;;;;;10.57;4.50;;;;;;;7.40;99.28;153259.53;4975903;28;20442;-73
2021/10/22 07:04:10;;;;;;;12.93;4.50;;;;;;;7.52;97.90;153290.56;4971266;28;20447;-73
2021/10/22 07:09:40;;;;;;;7.67;3.10;;;;;;;7.83;97.08;153370.66;4961181;28;20451;-73
2021/10/22 07:12:15;;;;;;;9.23;3.60;;;;;;;8.01;95.92;153415.84;4970359;28;20452;-73
2021/10/22 07:14:53;;;;;;;3.87;2.60;;;;;;;8.13;95.47;153448.13;4974243;28;20786;-73
2021/10/22 07:17:29;;;;;;;7.70;2.50;;;;;;;8.27;94.18;153484.41;4974697;28;20449;-73
2021/10/22 07:20:05;;;;;;;4.23;2.50;;;;;;;8.48;93.53;153537.38;4975635;28;20419;-73
2021/10/22 07:22:48;;;;;;;4.07;2.40;;;;;;;8.73;92.80;153602.03;4975806;28;20545;-73
2021/10/22 07:25:24;;;;;;;9.30;2.63;;;;;;;8.89;90.98;153642.13;4973903;28;20446;-73
2021/10/22 07:28:06;;;;;;;5.40;2.97;;;;;;;9.05;89.97;153683.50;4972479;28;20576;-73
2021/10/22 07:30:44;;;;;;;5.97;2.47;;;;;;;9.26;90.15;153737.81;4971098;28;20919;-74
2021/10/22 07:33:21;;;;;;;8.13;2.57;;;;;;;9.33;88.49;153755.91;4974496;28;20439;-73
2021/10/22 07:35:57;;;;;;;6.17;2.50;;;;;;;9.46;89.40;153789.53;4973950;28;20465;-73
2021/10/22 07:38:37;;;;;;;3.70;2.40;;;;;;;9.54;88.12;153810.25;4975472;28;20438;-73
2021/10/22 07:41:13;;;;;;;7.10;2.80;;;;;;;9.61;88.11;153828.34;4954051;28;24933;-73
2021/10/22 07:43:48;;;;;;;4.43;2.50;;;;;;;9.68;88.15;153845.16;4973130;28;20496;-73
2021/10/22 07:46:24;;;;;;;8.50;3.60;;;;;;;9.70;88.19;153851.63;4974820;28;20819;-73
2021/10/22 07:48:59;;;;;;;3.87;1.80;;;;;;;9.62;86.50;153830.94;4973595;28;20430;-73
2021/10/22 07:51:35;;;;;;;6.60;1.93;;;;;;;9.59;86.26;153823.16;4971516;28;20450;-73
2021/10/22 07:54:11;;;;;;;9.93;3.03;;;;;;;9.65;84.71;153838.72;4971208;28;20454;-73
2021/10/22 07:56:47;;;;;;;5.50;1.73;;;;;;;9.63;85.50;153833.53;4973448;28;20447;-73
2021/10/22 07:59:23;;;;;;;6.57;2.00;;;;;;;9.66;83.34;153841.25;4989521;28;20493;-73
2021/10/22 08:01:59;;;;;;;3.80;1.70;;;;;;;9.55;83.97;153812.84;4973585;28;20451;-73
2021/10/22 08:04:35;;;;;;;6.50;1.70;;;;;;;9.55;83.90;153811.53;4973274;28;20810;-73
2021/10/22 08:07:10;;;;;;;5.40;1.80;;;;;;;9.50;84.12;153799.91;4971357;28;20490;-74
2021/10/22 08:09:48;;;;;;;11.27;2.50;;;;;;;9.47;83.69;153792.13;4961905;28;20458;-74
2021/10/22 08:12:24;;;;;;;8.10;1.90;;;;;;;9.38;84.41;153768.84;4973755;28;20461;-74
2021/10/22 08:14:59;;;;;;;8.60;1.87;;;;;;;9.26;84.84;153737.81;4973051;28;20789;-74
2021/10/22 08:17:35;;;;;;;4.17;1.90;;;;;;;9.29;86.72;153745.59;4973184;28;20959;-74
2021/10/22 08:20:16;;;;;;;4.40;1.73;;;;;;;9.20;86.04;153722.28;4974294;28;20419;-74
2021/10/22 08:22:52;;;;;;;5.90;2.10;;;;;;;9.21;84.81;153723.59;4958442;28;20937;-74
2021/10/22 08:25:29;;;;;;;5.13;1.83;;;;;;;9.22;84.10;153727.44;4968520;28;20451;-74
2021/10/22 08:28:04;;;;;;;5.63;1.83;;;;;;;9.23;85.71;153730.03;4969808;28;20478;-74
2021/10/22 08:30:40;;;;;;;3.27;1.60;;;;;;;9.19;86.25;153719.69;4953587;28;20969;-74
2021/10/22 08:33:16;;;;;;;7.33;1.90;;;;;;;9.25;83.59;153735.22;4970440;28;20565;-74
2021/10/22 08:35:52;;;;;;;4.00;1.80;;;;;;;9.22;82.21;153727.44;4976435;28;20541;-74
2021/10/22 08:38:28;;;;;;;4.70;1.67;;;;;;;9.20;83.46;153722.28;4955498;28;20451;-74
2021/10/22 08:41:09;;;;;;;6.70;2.43;;;;;;;9.11;83.09;153698.97;4953517;29;20538;-74
2021/10/22 08:43:46;;;;;;;9.13;2.70;;;;;;;9.06;81.96;153686.06;4965783;28;21026;-74
2021/10/22 08:46:22;;;;;;;3.97;1.43;;;;;;;9.01;80.40;153674.44;4988278;28;20458;-73
2021/10/22 08:48:58;;;;;;;5.30;1.60;;;;;;;9.09;79.88;153693.81;4973093;28;20461;-74
2021/10/22 08:51:34;;;;;;;4.27;2.90;;;;;;;9.08;80.49;153691.25;4973018;28;20541;-73
2021/10/22 08:54:12;;;;;;;4.67;1.50;;;;;;;8.94;83.57;153655.03;4956317;28;20461;-74
2021/10/22 08:56:49;;;;;;;6.07;2.37;;;;;;;8.99;82.75;153669.25;4953135;29;20799;-74
2021/10/22 08:59:24;;;;;;;15.63;2.67;;;;;;;9.00;82.46;153670.56;4970391;28;20486;-74
2021/10/22 09:02:19;;;;;;;5.27;1.43;;;;;;;8.94;84.39;153655.03;4972646;28;20477;-74
2021/10/22 09:04:56;;;;;;;8.40;2.17;;;;;;;8.91;84.22;153648.56;4955151;28;20404;-74
2021/10/22 09:07:40;;;;;;;8.00;1.80;;;;;;;9.02;85.95;153675.72;4964734;28;20490;-73
2021/10/22 09:10:18;;;;;;;5.10;2.20;;;;;;;8.89;81.90;153642.13;4982950;28;20531;-73
2021/10/22 09:12:57;;;;;;;2.80;1.80;;;;;;;8.86;85.00;153635.66;4974821;28;20473;-73
2021/10/22 09:15:35;;;;;;;6.40;2.03;;;;;;;8.82;84.33;153625.28;4968427;28;20450;-73
2021/10/22 09:18:16;;;;;;;6.03;1.87;;;;;;;8.79;83.92;153616.25;4972528;28;20445;-73
2021/10/22 09:20:54;;;;;;;4.77;1.90;;;;;;;8.88;82.05;153639.50;4992079;28;20533;-73
2021/10/22 09:23:30;;;;;;;4.10;1.57;;;;;;;8.80;83.61;153618.81;4960786;28;20937;-73
2021/10/22 09:26:17;;;;;;;5.27;1.57;;;;;;;8.80;84.86;153618.81;4976347;28;20478;-73
2021/10/22 09:28:54;;;;;;;3.60;1.80;;;;;;;8.76;84.10;153609.81;4973932;28;21032;-73
2021/10/22 09:31:30;;;;;;;2.80;1.23;;;;;;;8.78;86.68;153613.66;4975811;28;20450;-73
2021/10/22 09:34:06;;;;;;;1.77;1.37;;;;;;;8.69;86.98;153590.38;4976291;28;20813;-73
2021/10/22 09:36:43;;;;;;;4.23;1.70;;;;;;;8.83;84.01;153627.88;4977258;28;20534;-73
2021/10/22 09:39:21;;;;;;;11.37;2.40;;;;;;;8.75;84.27;153605.91;4976062;28;20458;-73
2021/10/22 09:41:58;;;;;;;3.90;1.67;;;;;;;8.83;82.70;153626.59;4976381;28;20884;-73
2021/10/22 09:44:38;;;;;;;4.80;1.70;;;;;;;8.88;83.61;153640.81;4977378;28;20423;-73
2021/10/22 09:47:16;;;;;;;5.23;1.80;;;;;;;8.83;84.38;153627.88;4976461;28;20507;-73
2021/10/22 09:49:53;;;;;;;6.20;1.80;;;;;;;8.77;84.10;153612.34;4964221;28;20536;-73
2021/10/22 09:52:30;;;;;;;2.90;1.40;;;;;;;8.74;81.89;153603.28;4977456;28;20461;-73
2021/10/22 09:55:08;;;;;;;4.03;1.77;;;;;;;8.86;78.44;153635.66;4975477;28;20442;-73
2021/10/22 09:57:46;;;;;;;2.63;1.00;;;;;;;8.80;76.65;153618.81;4975594;28;20454;-73
2021/10/22 10:00:23;;;;;;;1.70;1.03;;;;;;;8.88;77.70;153639.50;4975988;28;20454;-73
2021/10/22 10:02:59;;;;;;;3.13;1.37;;;;;;;8.86;79.19;153635.66;4976009;28;20782;-73
2021/10/22 10:05:35;;;;;;;6.40;2.40;;;;;;;8.88;72.34;153639.50;4972191;28;20442;-73
2021/10/22 10:08:12;;;;;;;4.43;1.80;;;;;;;8.84;77.16;153629.19;4966480;28;20478;-73
2021/10/22 10:10:47;;;;;;;3.00;0.87;;;;;;;8.81;75.95;153621.41;4972545;28;20474;-73
2021/10/22 10:13:23;;;;;;;3.57;1.20;;;;;;;8.78;78.03;153613.66;4975018;28;20802;-74
2021/10/22 10:16:01;;;;;;;5.20;1.03;;;;;;;8.80;71.71;153620.13;4973466;28;20438;-73
2021/10/22 10:18:43;;;;;;;2.60;0.97;;;;;;;8.78;74.92;153614.97;4965427;28;20426;-73
2021/10/22 10:21:21;;;;;;;2.50;1.23;;;;;;;8.81;73.88;153622.72;4965364;28;20541;-74
2021/10/22 10:24:07;;;;;;;3.93;0.90;;;;;;;8.84;76.78;153629.19;4969790;28;20441;-73
2021/10/22 10:26:43;;;;;;;4.80;1.20;;;;;;;8.83;71.34;153627.88;4994168;28;20902;-73
2021/10/22 10:29:30;;;;;;;1.73;1.30;;;;;;;8.88;72.27;153640.81;4963656;28;20580;-73
2021/10/22 10:32:08;;;;;;;2.23;1.23;;;;;;;8.88;73.29;153640.81;4964331;28;20459;-73
2021/10/22 10:34:49;;;;;;;1.93;0.67;;;;;;;8.91;72.37;153647.28;4968906;28;20479;-72
2021/10/22 10:37:29;;;;;;;2.63;1.17;;;;;;;8.94;69.72;153656.34;4966718;28;20542;-71
2021/10/22 10:40:07;;;;;;;6.63;1.40;;;;;;;9.02;67.86;153675.72;4965733;28;20435;-72
2021/10/22 10:42:46;;;;;;;3.77;1.07;;;;;;;8.95;74.95;153657.59;4966418;28;20447;-71
2021/10/22 10:45:43;;;;;;;3.70;0.97;;;;;;;8.93;72.19;153652.44;4965276;28;20489;-71
2021/10/22 10:48:21;;;;;;;3.40;1.27;;;;;;;8.92;68.57;153649.88;4971530;28;20465;-71
2021/10/22 10:51:02;;;;;;;1.63;0.90;;;;;;;9.06;67.90;153686.06;4976123;28;20427;-71
2021/10/22 10:53:41;;;;;;;3.40;1.10;;;;;;;9.14;64.63;153706.75;4973252;28;20446;-71
2021/10/22 10:56:23;;;;;;;2.70;1.33;;;;;;;9.16;68.62;153711.91;4975296;28;20466;-71
2021/10/22 10:58:58;;;;;;;2.67;1.20;;;;;;;9.20;69.44;153722.28;4972120;28;20450;-72
2021/10/22 11:01:35;;;;;;;1.67;1.20;;;;;;;9.10;64.66;153697.72;4974648;28;20458;-71
2021/10/22 11:04:12;;;;;;;2.07;1.00;;;;;;;9.13;64.98;153705.44;4975723;28;20411;-73
2021/10/22 11:06:48;;;;;;;3.10;0.93;;;;;;;9.06;67.75;153686.06;4973998;28;20509;-72
2021/10/22 11:09:43;;;;;;;2.03;0.83;;;;;;;9.14;68.81;153708.03;4971721;28;20470;-73
2021/10/22 11:12:19;;;;;;;2.00;0.80;;;;;;;9.13;71.43;153704.19;4973640;28;20802;-73
2021/10/22 11:14:58;;;;;;;3.80;2.13;;;;;;;9.16;70.88;153711.91;4975992;28;20837;-73
2021/10/22 11:17:33;;;;;;;5.60;1.37;;;;;;;9.14;68.40;153708.03;4972182;28;20450;-73
2021/10/22 11:20:11;;;;;;;3.97;1.13;;;;;;;9.21;66.54;153724.88;4973564;28;20451;-73
2021/10/22 11:22:47;;;;;;;2.47;0.53;;;;;;;9.18;64.79;153717.13;4973243;28;20977;-73
2021/10/22 11:25:23;;;;;;;2.10;0.80;;;;;;;9.27;61.72;153740.38;4974020;28;20430;-73
2021/10/22 11:28:00;;;;;;;1.63;0.57;;;;;;;9.24;64.88;153732.59;4971998;28;20477;-73
2021/10/22 11:30:35;;;;;;;1.47;0.80;;;;;;;9.29;62.91;153744.28;4973001;28;20544;-72
2021/10/22 11:33:11;;;;;;;5.73;1.30;;;;;;;9.33;64.56;153754.59;4966514;28;20462;-73
2021/10/22 11:35:48;;;;;;;2.60;1.13;;;;;;;9.33;61.58;153755.91;4971207;28;20454;-73
2021/10/22 11:38:25;;;;;;;3.53;1.00;;;;;;;9.32;62.48;153753.31;4974059;28;20445;-73
2021/10/22 11:41:13;;;;;;;2.10;1.07;;;;;;;9.39;61.16;153771.44;4974362;28;20450;-73
2021/10/22 11:44:03;;;;;;;2.40;0.50;;;;;;;9.43;60.00;153780.47;4973199;28;20801;-73
2021/10/22 11:46:43;;;;;;;1.40;0.80;;;;;;;9.44;59.67;153784.38;4974288;28;20461;-73
2021/10/22 11:49:25;;;;;;;2.97;1.37;;;;;;;9.34;63.55;153758.50;4973835;28;20497;-73
2021/10/22 11:52:04;;;;;;;1.40;0.90;;;;;;;9.29;61.82;153745.59;4971564;28;20505;-73
2021/10/22 11:54:42;;;;;;;2.00;0.80;;;;;;;9.36;63.20;153762.38;4972817;28;20446;-73
2021/10/22 11:57:19;;;;;;;4.03;1.00;;;;;;;9.34;58.77;153758.50;4958895;28;20560;-73
2021/10/22 11:59:57;;;;;;;4.47;0.93;;;;;;;9.31;63.62;153750.75;4973552;28;20450;-73
2021/10/22 12:02:33;;;;;;;1.40;0.80;;;;;;;9.32;61.78;153752.03;4969888;28;20962;-73
2021/10/22 12:05:11;;;;;;;2.10;1.00;;;;;;;9.27;58.58;153739.06;4974720;28;20454;-73
2021/10/22 12:07:50;;;;;;;2.63;0.73;;;;;;;9.25;61.16;153733.91;4965520;28;20955;-73
2021/10/22 12:10:26;;;;;;;2.27;0.70;;;;;;;9.16;56.37;153711.91;4975917;28;21006;-73
2021/10/22 12:13:01;;;;;;;2.50;0.77;;;;;;;9.12;59.57;153701.59;4971921;28;20460;-73
2021/10/22 12:15:37;;;;;;;1.53;0.77;;;;;;;9.16;62.18;153711.91;4965084;28;20438;-73
2021/10/22 12:18:13;;;;;;;0.97;0.60;;;;;;;9.17;54.30;153714.50;4961747;28;20454;-72
2021/10/22 12:20:49;;;;;;;4.00;1.07;;;;;;;9.20;57.73;153722.28;4974433;28;20801;-73